createdAt,value
2018-08-12T00:01:58.105Z,19.60
2018-08-12T00:04:27.911Z,19.60
2018-08-12T00:06:57.540Z,19.60
2018-08-12T00:09:27.456Z,19.60
2018-08-12T00:11:57.375Z,19.50
2018-08-12T00:14:27.598Z,19.50
2018-08-12T00:16:57.237Z,19.50
2018-08-12T00:19:27.015Z,19.50
2018-08-12T00:21:57.073Z,19.50
2018-08-12T00:24:26.951Z,19.40
2018-08-12T00:26:56.921Z,19.40
2018-08-12T00:29:26.585Z,19.30
2018-08-12T00:31:56.497Z,19.40
2018-08-12T00:34:26.077Z,19.30
2018-08-12T00:36:56.197Z,19.30
2018-08-12T00:39:26.035Z,19.30
2018-08-12T00:41:55.807Z,19.30
2018-08-12T00:44:25.559Z,19.20
2018-08-12T00:46:55.496Z,19.30
2018-08-12T00:49:25.442Z,19.20
2018-08-12T00:51:55.033Z,19.10
2018-08-12T00:54:24.941Z,19.10
2018-08-12T00:56:54.896Z,19.10
2018-08-12T00:59:24.702Z,19.00
2018-08-12T01:01:54.421Z,18.90
2018-08-12T01:04:24.342Z,18.90
2018-08-12T01:06:54.322Z,18.90
2018-08-12T01:09:24.245Z,18.80
2018-08-12T01:11:54.016Z,18.80
2018-08-12T01:14:23.770Z,18.80
2018-08-12T01:16:53.356Z,18.80
2018-08-12T01:19:23.374Z,18.80
2018-08-12T01:21:53.223Z,18.80
2018-08-12T01:24:22.927Z,18.80
2018-08-12T01:26:52.785Z,18.80
2018-08-12T01:29:22.373Z,18.80
2018-08-12T01:31:52.265Z,18.80
2018-08-12T01:34:22.397Z,18.80
2018-08-12T01:36:52.118Z,18.80
2018-08-12T01:39:22.201Z,18.80
2018-08-12T01:41:51.932Z,18.70
2018-08-12T01:44:21.627Z,18.70
2018-08-12T01:46:51.493Z,18.70
2018-08-12T01:49:21.093Z,18.70
2018-08-12T01:51:50.968Z,18.70
2018-08-12T01:54:20.851Z,18.70
2018-08-12T01:56:50.860Z,18.70
2018-08-12T01:59:20.794Z,18.70
2018-08-12T02:01:50.458Z,18.60
2018-08-12T02:04:20.168Z,18.60
2018-08-12T02:06:49.964Z,18.50
2018-08-12T02:09:20.140Z,18.60
2018-08-12T02:11:49.915Z,18.50
2018-08-12T02:14:19.499Z,18.60
2018-08-12T02:16:49.369Z,18.70
2018-08-12T02:19:19.092Z,18.80
2018-08-12T02:21:55.355Z,18.80
2018-08-12T02:24:25.393Z,18.90
2018-08-12T02:26:55.163Z,18.90
2018-08-12T02:29:24.776Z,19.00
2018-08-12T02:31:54.521Z,19.00
2018-08-12T02:34:24.148Z,19.00
2018-08-12T02:36:54.022Z,19.00
2018-08-12T02:39:23.882Z,19.00
2018-08-12T02:41:53.730Z,18.90
2018-08-12T02:44:23.402Z,19.00
2018-08-12T02:46:53.238Z,19.00
2018-08-12T02:49:22.915Z,18.90
2018-08-12T02:51:52.861Z,18.90
2018-08-12T02:54:22.556Z,18.80
2018-08-12T02:56:52.472Z,18.80
2018-08-12T02:59:22.120Z,18.80
2018-08-12T03:01:52.249Z,18.80
2018-08-12T03:04:22.106Z,18.80
2018-08-12T03:06:51.777Z,18.80
2018-08-12T03:09:21.449Z,18.80
2018-08-12T03:11:51.232Z,18.80
2018-08-12T03:14:21.218Z,18.80
2018-08-12T03:16:50.954Z,18.80
2018-08-12T03:19:20.728Z,18.70
2018-08-12T03:21:50.601Z,18.70
2018-08-12T03:24:22.956Z,18.70
2018-08-12T03:26:52.816Z,18.60
2018-08-12T03:29:22.532Z,18.60
2018-08-12T03:31:52.440Z,18.70
2018-08-12T03:34:22.336Z,18.70
2018-08-12T03:36:52.124Z,18.80
2018-08-12T03:39:22.095Z,18.90
2018-08-12T03:41:52.145Z,19.10
2018-08-12T03:44:22.085Z,19.30
2018-08-12T03:46:52.076Z,19.40
2018-08-12T03:49:21.659Z,19.40
2018-08-12T03:51:51.668Z,19.50
2018-08-12T03:54:21.416Z,19.50
2018-08-12T03:56:51.390Z,19.60
2018-08-12T03:59:21.239Z,19.70
2018-08-12T04:01:51.064Z,19.90
2018-08-12T04:04:20.751Z,20.00
2018-08-12T04:06:50.373Z,20.10
2018-08-12T04:09:20.040Z,20.20
2018-08-12T04:11:49.757Z,20.30
2018-08-12T04:14:19.604Z,20.40
2018-08-12T04:16:56.037Z,20.50
2018-08-12T04:19:25.856Z,20.60
2018-08-12T04:21:55.735Z,20.70
2018-08-12T04:24:25.878Z,20.70
2018-08-12T04:26:55.752Z,20.70
2018-08-12T04:29:25.652Z,20.80
2018-08-12T04:31:55.377Z,20.90
2018-08-12T04:34:25.067Z,21.00
2018-08-12T04:36:54.810Z,21.00
2018-08-12T04:39:24.561Z,21.10
2018-08-12T04:41:54.462Z,21.20
2018-08-12T04:44:24.304Z,21.30
2018-08-12T04:46:54.128Z,21.40
2018-08-12T04:49:24.049Z,21.50
2018-08-12T04:51:53.828Z,21.60
2018-08-12T04:54:26.590Z,21.70
2018-08-12T04:56:56.251Z,21.80
2018-08-12T04:59:26.222Z,21.90
2018-08-12T05:01:56.499Z,22.00
2018-08-12T05:04:26.360Z,22.20
2018-08-12T05:06:56.280Z,22.30
2018-08-12T05:09:26.164Z,22.40
2018-08-12T05:11:55.850Z,22.50
2018-08-12T05:14:25.631Z,22.60
2018-08-12T05:16:55.502Z,22.70
2018-08-12T05:19:25.254Z,22.80
2018-08-12T05:21:55.085Z,22.90
2018-08-12T05:24:24.627Z,23.10
2018-08-12T05:26:54.821Z,23.20
2018-08-12T05:29:24.594Z,23.30
2018-08-12T05:31:54.194Z,23.50
2018-08-12T05:34:23.917Z,23.70
2018-08-12T05:36:53.929Z,23.70
2018-08-12T05:39:23.722Z,23.90
2018-08-12T05:41:53.383Z,24.00
2018-08-12T05:44:23.071Z,24.10
2018-08-12T05:46:53.061Z,24.20
2018-08-12T05:49:22.927Z,24.30
2018-08-12T05:51:52.634Z,24.40
2018-08-12T05:54:22.501Z,24.50
2018-08-12T05:56:52.701Z,24.60
2018-08-12T05:59:22.438Z,24.70
2018-08-12T06:01:52.090Z,24.90
2018-08-12T06:04:28.421Z,25.10
2018-08-12T06:06:58.228Z,25.20
2018-08-12T06:09:28.210Z,25.40
2018-08-12T06:11:58.006Z,25.40
2018-08-12T06:14:27.982Z,25.50
2018-08-12T06:16:57.960Z,25.60
2018-08-12T06:19:27.801Z,25.60
2018-08-12T06:21:57.445Z,25.80
2018-08-12T06:24:27.208Z,25.80
2018-08-12T06:26:57.031Z,25.90
2018-08-12T06:29:27.112Z,26.10
2018-08-12T06:31:57.079Z,26.20
2018-08-12T06:34:27.427Z,26.30
2018-08-12T06:36:57.216Z,26.50
2018-08-12T06:39:27.134Z,26.70
2018-08-12T06:41:57.177Z,26.90
2018-08-12T06:44:26.866Z,27.10
2018-08-12T06:46:56.790Z,27.30
2018-08-12T06:49:26.787Z,27.40
2018-08-12T06:51:57.041Z,27.60
2018-08-12T06:54:27.309Z,27.70
2018-08-12T06:56:57.030Z,27.90
2018-08-12T06:59:26.902Z,28.20
2018-08-12T07:01:56.814Z,28.40
2018-08-12T07:04:26.824Z,28.60
2018-08-12T07:06:56.751Z,28.70
2018-08-12T07:09:26.618Z,28.80
2018-08-12T07:11:56.381Z,29.00
2018-08-12T07:14:26.462Z,29.10
2018-08-12T07:16:56.342Z,29.30
2018-08-12T07:19:26.074Z,29.40
2018-08-12T07:21:55.992Z,29.60
2018-08-12T07:24:25.880Z,29.80
2018-08-12T07:26:55.905Z,30.00
2018-08-12T07:29:25.847Z,30.10
2018-08-12T07:31:55.823Z,30.10
2018-08-12T07:34:25.993Z,30.20
2018-08-12T07:36:55.879Z,30.10
2018-08-12T07:39:25.655Z,30.20
2018-08-12T07:41:55.550Z,30.30
2018-08-12T07:44:25.348Z,30.40
2018-08-12T07:46:55.071Z,30.40
2018-08-12T07:49:24.787Z,30.40
2018-08-12T07:51:54.661Z,30.40
2018-08-12T07:54:24.695Z,30.50
2018-08-12T07:56:54.477Z,30.60
2018-08-12T07:59:24.413Z,30.80
2018-08-12T08:01:54.195Z,30.80
2018-08-12T08:04:23.976Z,30.80
2018-08-12T08:06:53.840Z,30.80
2018-08-12T08:09:23.758Z,30.80
2018-08-12T08:11:53.612Z,30.80
2018-08-12T08:14:23.604Z,30.70
2018-08-12T08:16:53.671Z,30.70
2018-08-12T08:19:23.443Z,30.60
2018-08-12T08:21:53.427Z,30.50
2018-08-12T08:24:23.272Z,30.40
2018-08-12T08:26:52.990Z,30.30
2018-08-12T08:29:22.874Z,30.30
2018-08-12T08:31:52.984Z,30.40
2018-08-12T08:34:22.613Z,30.20
2018-08-12T08:36:52.501Z,30.20
2018-08-12T08:39:22.268Z,30.40
2018-08-12T08:41:52.132Z,30.50
2018-08-12T08:44:21.956Z,30.60
2018-08-12T08:46:51.518Z,30.60
2018-08-12T08:49:21.382Z,30.70
2018-08-12T08:51:51.379Z,30.90
2018-08-12T08:54:21.538Z,30.80
2018-08-12T08:56:51.243Z,30.80
2018-08-12T08:59:20.987Z,30.80
2018-08-12T09:01:51.643Z,31.10
2018-08-12T09:04:21.343Z,31.10
2018-08-12T09:06:51.154Z,31.20
2018-08-12T09:09:20.981Z,31.20
2018-08-12T09:11:50.838Z,31.40
2018-08-12T09:14:20.797Z,31.50
2018-08-12T09:16:50.702Z,31.50
2018-08-12T09:19:20.486Z,31.50
2018-08-12T09:21:50.665Z,31.40
2018-08-12T09:24:20.224Z,31.50
2018-08-12T09:26:50.034Z,31.70
2018-08-12T09:29:19.993Z,31.70
2018-08-12T09:31:50.107Z,32.00
2018-08-12T09:34:19.939Z,32.00
2018-08-12T09:36:49.648Z,32.10
2018-08-12T09:39:19.324Z,32.30
2018-08-12T09:41:48.965Z,32.30
2018-08-12T09:44:18.628Z,32.20
2018-08-12T09:46:48.426Z,32.10
2018-08-12T09:49:18.081Z,32.20
2018-08-12T09:51:48.055Z,32.30
2018-08-12T09:54:17.674Z,32.40
2018-08-12T09:56:47.742Z,32.40
2018-08-12T09:59:17.648Z,32.40
2018-08-12T10:01:47.804Z,32.60
2018-08-12T10:04:17.436Z,32.60
2018-08-12T10:06:47.181Z,32.70
2018-08-12T10:09:16.806Z,32.60
2018-08-12T10:11:47.652Z,32.40
2018-08-12T10:14:17.641Z,32.50
2018-08-12T10:16:47.510Z,32.50
2018-08-12T10:19:17.242Z,32.60
2018-08-12T10:21:47.189Z,32.60
2018-08-12T10:24:17.199Z,32.70
2018-08-12T10:26:47.139Z,32.80
2018-08-12T10:29:16.940Z,32.80
2018-08-12T10:31:46.631Z,32.80
2018-08-12T10:34:16.281Z,32.80
2018-08-12T10:36:45.849Z,32.90
2018-08-12T10:39:16.139Z,32.90
2018-08-12T10:41:45.893Z,32.80
2018-08-12T10:44:16.042Z,32.90
2018-08-12T10:46:46.097Z,32.90
2018-08-12T10:49:16.336Z,32.90
2018-08-12T10:51:46.109Z,33.10
2018-08-12T10:54:15.906Z,33.10
2018-08-12T10:56:45.725Z,33.10
2018-08-12T10:59:15.968Z,33.10
2018-08-12T11:01:45.974Z,33.20
2018-08-12T11:04:15.946Z,33.30
2018-08-12T11:06:48.417Z,33.30
2018-08-12T11:09:18.643Z,33.40
2018-08-12T11:11:48.405Z,33.50
2018-08-12T11:14:18.457Z,33.60
2018-08-12T11:16:48.280Z,33.60
2018-08-12T11:19:17.876Z,33.60
2018-08-12T11:21:47.595Z,33.40
2018-08-12T11:24:17.475Z,33.40
2018-08-12T11:26:47.110Z,33.30
2018-08-12T11:29:17.006Z,33.30
2018-08-12T11:31:46.654Z,33.30
2018-08-12T11:34:16.218Z,33.60
2018-08-12T11:36:46.120Z,33.60
2018-08-12T11:39:16.130Z,33.70
2018-08-12T11:41:45.917Z,33.50
2018-08-12T11:44:15.501Z,33.80
2018-08-12T11:46:45.414Z,33.80
2018-08-12T11:49:15.390Z,33.90
2018-08-12T11:51:45.087Z,34.00
2018-08-12T11:54:14.786Z,33.90
2018-08-12T11:56:44.601Z,34.20
2018-08-12T11:59:14.674Z,34.40
2018-08-12T12:01:44.441Z,34.40
2018-08-12T12:04:14.274Z,34.30
2018-08-12T12:06:44.563Z,34.10
2018-08-12T12:09:14.308Z,33.90
2018-08-12T12:11:44.184Z,34.00
2018-08-12T12:14:14.024Z,33.90
2018-08-12T12:16:43.734Z,34.10
2018-08-12T12:19:13.646Z,33.70
2018-08-12T12:21:43.400Z,33.70
2018-08-12T12:24:13.044Z,33.80
2018-08-12T12:26:43.232Z,33.60
2018-08-12T12:29:13.064Z,33.90
2018-08-12T12:31:43.046Z,33.80
2018-08-12T12:34:12.940Z,33.70
2018-08-12T12:36:42.762Z,33.70
2018-08-12T12:39:12.773Z,33.70
2018-08-12T12:41:42.773Z,33.90
2018-08-12T12:44:12.657Z,33.90
2018-08-12T12:46:42.481Z,33.80
2018-08-12T12:49:12.866Z,33.80
2018-08-12T12:51:42.822Z,33.70
2018-08-12T12:54:12.746Z,33.50
2018-08-12T12:56:42.421Z,33.60
2018-08-12T12:59:12.601Z,33.60
2018-08-12T13:01:42.434Z,33.70
2018-08-12T13:04:12.451Z,33.90
2018-08-12T13:06:42.505Z,33.80
2018-08-12T13:09:13.757Z,33.90
2018-08-12T13:11:43.470Z,33.80
2018-08-12T13:14:13.133Z,33.70
2018-08-12T13:16:42.889Z,34.00
2018-08-12T13:19:13.240Z,34.30
2018-08-12T13:21:43.137Z,34.10
2018-08-12T13:24:13.026Z,34.10
2018-08-12T13:26:42.740Z,34.00
2018-08-12T13:29:12.683Z,34.10
2018-08-12T13:31:42.483Z,33.70
2018-08-12T13:34:12.260Z,33.90
2018-08-12T13:36:42.004Z,34.20
2018-08-12T13:39:13.315Z,34.40
2018-08-12T13:41:43.005Z,34.50
2018-08-12T13:44:12.620Z,34.40
2018-08-12T13:46:42.645Z,34.30
2018-08-12T13:49:12.371Z,34.10
2018-08-12T13:51:42.538Z,34.00
2018-08-12T13:54:12.365Z,33.80
2018-08-12T13:56:42.185Z,33.90
2018-08-12T13:59:12.287Z,33.80
2018-08-12T14:01:42.051Z,33.70
2018-08-12T14:04:11.752Z,33.60
2018-08-12T14:06:41.648Z,33.60
2018-08-12T14:09:12.095Z,33.60
2018-08-12T14:11:42.025Z,33.30
2018-08-12T14:14:11.709Z,33.20
2018-08-12T14:16:41.499Z,33.30
2018-08-12T14:19:11.255Z,33.20
2018-08-12T14:21:41.092Z,33.70
2018-08-12T14:24:10.814Z,33.00
2018-08-12T14:26:40.966Z,32.70
2018-08-12T14:29:11.004Z,32.60
2018-08-12T14:31:40.818Z,32.60
2018-08-12T14:34:10.700Z,32.60
2018-08-12T14:36:40.354Z,32.60
2018-08-12T14:39:11.363Z,32.70
2018-08-12T14:41:41.172Z,32.90
2018-08-12T14:44:10.954Z,33.00
2018-08-12T14:46:40.664Z,33.10
2018-08-12T14:49:10.235Z,33.10
2018-08-12T14:51:39.920Z,33.20
2018-08-12T14:54:09.811Z,33.20
2018-08-12T14:56:39.540Z,33.30
2018-08-12T14:59:09.382Z,33.40
2018-08-12T15:01:39.652Z,33.40
2018-08-12T15:04:09.413Z,33.30
2018-08-12T15:06:39.111Z,33.10
2018-08-12T15:09:11.236Z,33.10
2018-08-12T15:11:41.039Z,33.00
2018-08-12T15:14:10.892Z,33.00
2018-08-12T15:16:40.752Z,32.90
2018-08-12T15:19:10.488Z,32.90
2018-08-12T15:21:40.178Z,32.80
2018-08-12T15:24:13.106Z,32.70
2018-08-12T15:26:43.065Z,32.50
2018-08-12T15:29:12.880Z,32.60
2018-08-12T15:31:42.665Z,32.50
2018-08-12T15:34:12.574Z,32.20
2018-08-12T15:36:42.679Z,32.10
2018-08-12T15:39:13.547Z,31.70
2018-08-12T15:41:43.911Z,31.50
2018-08-12T15:44:13.792Z,31.30
2018-08-12T15:46:43.698Z,31.20
2018-08-12T15:49:13.329Z,31.10
2018-08-12T15:51:42.895Z,30.90
2018-08-12T15:54:12.700Z,30.90
2018-08-12T15:56:42.726Z,30.50
2018-08-12T15:59:12.704Z,30.40
2018-08-12T16:01:43.121Z,30.30
2018-08-12T16:04:12.975Z,30.20
2018-08-12T16:06:43.097Z,30.00
2018-08-12T16:09:13.430Z,29.80
2018-08-12T16:11:43.201Z,29.60
2018-08-12T16:14:13.213Z,29.40
2018-08-12T16:16:43.241Z,29.40
2018-08-12T16:19:13.042Z,29.20
2018-08-12T16:21:42.699Z,29.00
2018-08-12T16:24:12.663Z,28.70
2018-08-12T16:26:42.542Z,28.60
2018-08-12T16:29:12.235Z,28.50
2018-08-12T16:31:41.800Z,28.40
2018-08-12T16:34:11.677Z,28.40
2018-08-12T16:36:41.691Z,28.20
2018-08-12T16:39:13.442Z,28.00
2018-08-12T16:41:43.028Z,28.00
2018-08-12T16:44:12.710Z,27.90
2018-08-12T16:46:42.495Z,27.90
2018-08-12T16:49:12.099Z,27.80
2018-08-12T16:51:41.881Z,27.60
2018-08-12T16:54:11.872Z,27.50
2018-08-12T16:56:41.736Z,27.50
2018-08-12T16:59:11.544Z,27.40
2018-08-12T17:01:41.254Z,27.20
2018-08-12T17:04:10.982Z,27.20
2018-08-12T17:06:40.823Z,27.10
2018-08-12T17:09:12.397Z,27.10
2018-08-12T17:11:42.203Z,27.00
2018-08-12T17:14:11.973Z,27.10
2018-08-12T17:16:41.786Z,27.00
2018-08-12T17:19:11.641Z,27.00
2018-08-12T17:21:44.384Z,26.70
2018-08-12T17:24:14.189Z,26.50
2018-08-12T17:26:44.268Z,26.40
2018-08-12T17:29:13.985Z,26.30
2018-08-12T17:31:43.712Z,26.40
2018-08-12T17:34:13.406Z,26.30
2018-08-12T17:36:43.309Z,26.30
2018-08-12T17:39:13.030Z,26.30
2018-08-12T17:41:42.949Z,26.10
2018-08-12T17:44:12.704Z,25.90
2018-08-12T17:46:42.429Z,25.80
2018-08-12T17:49:12.172Z,25.70
2018-08-12T17:51:42.006Z,25.60
2018-08-12T17:54:11.813Z,25.50
2018-08-12T17:56:41.595Z,25.50
2018-08-12T17:59:11.497Z,25.60
2018-08-12T18:01:41.335Z,25.50
2018-08-12T18:04:11.126Z,25.30
2018-08-12T18:06:40.878Z,25.20
2018-08-12T18:09:10.512Z,25.20
2018-08-12T18:11:40.273Z,25.10
2018-08-12T18:14:10.093Z,25.00
2018-08-12T18:16:39.807Z,24.90
2018-08-12T18:19:09.758Z,24.80
2018-08-12T18:21:39.486Z,24.70
2018-08-12T18:24:09.779Z,24.60
2018-08-12T18:26:39.994Z,24.60
2018-08-12T18:29:10.079Z,24.40
2018-08-12T18:31:39.771Z,24.30
2018-08-12T18:34:09.956Z,24.30
2018-08-12T18:36:39.659Z,24.10
2018-08-12T18:39:11.990Z,24.10
2018-08-12T18:41:42.319Z,24.00
2018-08-12T18:44:13.237Z,24.10
2018-08-12T18:46:43.318Z,24.00
2018-08-12T18:49:13.504Z,24.00
2018-08-12T18:51:43.732Z,23.80
2018-08-12T18:54:14.669Z,23.80
2018-08-12T18:56:45.029Z,23.80
2018-08-12T18:59:15.547Z,23.70
2018-08-12T19:01:46.483Z,23.70
2018-08-12T19:04:17.097Z,23.60
2018-08-12T19:06:47.384Z,23.60
2018-08-12T19:09:17.747Z,23.60
2018-08-12T19:11:47.516Z,23.50
2018-08-12T19:14:17.862Z,23.60
2018-08-12T19:16:47.649Z,23.50
2018-08-12T19:19:18.390Z,23.50
2018-08-12T19:21:48.662Z,23.40
2018-08-12T19:24:19.111Z,23.40
2018-08-12T19:26:49.303Z,23.40
2018-08-12T19:29:19.130Z,23.40
2018-08-12T19:31:49.268Z,23.60
2018-08-12T19:34:19.147Z,23.70
2018-08-12T19:36:49.543Z,23.80
2018-08-12T19:39:19.157Z,23.90
2018-08-12T19:41:49.299Z,23.90
2018-08-12T19:44:19.176Z,24.00
2018-08-12T19:46:49.067Z,24.00
2018-08-12T19:49:19.953Z,24.00
2018-08-12T19:51:49.636Z,24.00
2018-08-12T19:54:20.189Z,24.10
2018-08-12T19:56:49.878Z,24.00
2018-08-12T19:59:19.506Z,24.00
2018-08-12T20:01:50.097Z,24.00
2018-08-12T20:04:22.049Z,24.00
2018-08-12T20:06:52.345Z,24.00
2018-08-12T20:09:23.258Z,23.90
2018-08-12T20:11:53.877Z,23.90
2018-08-12T20:14:24.086Z,23.90
2018-08-12T20:16:54.882Z,23.80
2018-08-12T20:19:24.596Z,23.80
2018-08-12T20:21:54.649Z,23.80
2018-08-12T20:24:24.950Z,23.80
2018-08-12T20:26:55.600Z,23.80
2018-08-12T20:29:25.203Z,23.80
2018-08-12T20:31:55.839Z,23.80
2018-08-12T20:34:26.282Z,23.80
2018-08-12T20:36:56.387Z,23.80
2018-08-12T20:39:26.385Z,23.70
2018-08-12T20:41:56.271Z,23.60
2018-08-12T20:44:25.989Z,23.50
2018-08-12T20:46:55.694Z,23.50
2018-08-12T20:49:25.560Z,23.50
2018-08-12T20:51:55.315Z,23.50
2018-08-12T20:54:25.104Z,23.40
2018-08-12T20:56:54.830Z,23.40
2018-08-12T20:59:24.569Z,23.30
2018-08-12T21:01:54.183Z,23.20
2018-08-12T21:04:23.975Z,23.20
2018-08-12T21:06:53.726Z,23.20
2018-08-12T21:09:24.388Z,23.20
2018-08-12T21:11:54.197Z,23.20
2018-08-12T21:14:24.028Z,23.10
2018-08-12T21:16:53.788Z,23.10
2018-08-12T21:19:23.715Z,23.10
2018-08-12T21:21:53.500Z,23.10
2018-08-12T21:24:23.131Z,23.10
2018-08-12T21:26:52.952Z,23.00
2018-08-12T21:29:22.698Z,23.00
2018-08-12T21:31:52.498Z,23.00
2018-08-12T21:34:22.233Z,23.00
2018-08-12T21:36:51.837Z,22.90
2018-08-12T21:39:21.648Z,22.90
2018-08-12T21:41:51.469Z,22.90
2018-08-12T21:44:21.579Z,22.90
2018-08-12T21:46:51.156Z,22.80
2018-08-12T21:49:20.986Z,22.80
2018-08-12T21:51:50.548Z,22.80
2018-08-12T21:54:20.529Z,22.70
2018-08-12T21:56:50.225Z,22.70
2018-08-12T21:59:19.785Z,22.70
2018-08-12T22:01:49.786Z,22.60
2018-08-12T22:04:19.400Z,22.60
2018-08-12T22:06:49.133Z,22.50
2018-08-12T22:09:18.765Z,22.50
2018-08-12T22:11:48.542Z,22.40
2018-08-12T22:14:18.689Z,22.30
2018-08-12T22:16:48.352Z,22.30
2018-08-12T22:19:18.197Z,22.20
2018-08-12T22:21:47.921Z,21.90
2018-08-12T22:24:17.801Z,21.80
2018-08-12T22:26:47.405Z,21.60
2018-08-12T22:29:17.216Z,21.60
2018-08-12T22:31:46.997Z,21.50
2018-08-12T22:34:16.748Z,21.40
2018-08-12T22:36:46.684Z,21.30
2018-08-12T22:39:16.507Z,21.20
2018-08-12T22:41:46.220Z,21.30
2018-08-12T22:44:15.835Z,21.10
2018-08-12T22:46:45.600Z,21.10
2018-08-12T22:49:15.281Z,21.10
2018-08-12T22:51:44.971Z,21.00
2018-08-12T22:54:14.805Z,20.80
2018-08-12T22:56:44.921Z,20.80
2018-08-12T22:59:14.677Z,20.70
2018-08-12T23:01:44.482Z,20.70
2018-08-12T23:04:14.498Z,20.70
2018-08-12T23:06:44.533Z,20.70
2018-08-12T23:09:14.178Z,20.60
2018-08-12T23:11:43.918Z,20.50
2018-08-12T23:14:13.664Z,20.40
2018-08-12T23:16:54.138Z,20.40
2018-08-12T23:19:24.438Z,20.40
2018-08-12T23:21:54.385Z,20.30
2018-08-12T23:24:24.347Z,20.40
2018-08-12T23:26:54.469Z,20.30
2018-08-12T23:29:24.193Z,20.30
2018-08-12T23:31:53.820Z,20.30
2018-08-12T23:34:23.709Z,20.20
2018-08-12T23:36:53.321Z,20.20
2018-08-12T23:39:23.230Z,20.10
2018-08-12T23:41:53.074Z,20.20
2018-08-12T23:44:22.687Z,20.10
2018-08-12T23:46:52.393Z,20.00
2018-08-12T23:49:22.118Z,20.00
2018-08-12T23:51:52.551Z,19.90
2018-08-12T23:54:22.462Z,19.90
2018-08-12T23:56:52.219Z,19.90
2018-08-12T23:59:22.014Z,19.90
